sensor_id;sensor_type;location;lat;lon;timestamp;P1;durP1;ratioP1;P2;durP2;ratioP2
55220;SDS011;41089;51.448;6.604;2023-09-19T00:02:21;13.98;;;3.03;;
55220;SDS011;41089;51.448;6.604;2023-09-19T00:08:22;8.55;;;2.35;;
55220;SDS011;41089;51.448;6.604;2023-09-19T00:14:24;11.50;;;3.83;;
55220;SDS011;41089;51.448;6.604;2023-09-19T00:20:25;9.50;;;2.67;;
55220;SDS011;41089;51.448;6.604;2023-09-19T00:26:26;12.52;;;2.85;;
55220;SDS011;41089;51.448;6.604;2023-09-19T00:32:26;13.63;;;2.57;;
55220;SDS011;41089;51.448;6.604;2023-09-19T00:38:32;12.32;;;2.78;;
55220;SDS011;41089;51.448;6.604;2023-09-19T00:44:32;11.30;;;3.17;;
55220;SDS011;41089;51.448;6.604;2023-09-19T00:50:34;9.75;;;3.20;;
55220;SDS011;41089;51.448;6.604;2023-09-19T00:56:35;11.15;;;2.80;;
55220;SDS011;41089;51.448;6.604;2023-09-19T01:02:38;9.18;;;3.03;;
55220;SDS011;41089;51.448;6.604;2023-09-19T01:08:38;8.20;;;2.65;;
55220;SDS011;41089;51.448;6.604;2023-09-19T01:14:42;13.55;;;3.00;;
55220;SDS011;41089;51.448;6.604;2023-09-19T01:21:00;10.40;;;2.78;;
55220;SDS011;41089;51.448;6.604;2023-09-19T01:34:00;10.65;;;3.03;;
55220;SDS011;41089;51.448;6.604;2023-09-19T01:40:07;10.93;;;3.63;;
55220;SDS011;41089;51.448;6.604;2023-09-19T01:46:21;11.52;;;3.10;;
55220;SDS011;41089;51.448;6.604;2023-09-19T01:52:25;11.07;;;3.17;;
55220;SDS011;41089;51.448;6.604;2023-09-19T01:58:33;10.00;;;2.50;;
55220;SDS011;41089;51.448;6.604;2023-09-19T02:04:35;7.50;;;2.58;;
55220;SDS011;41089;51.448;6.604;2023-09-19T02:10:36;10.13;;;2.67;;
55220;SDS011;41089;51.448;6.604;2023-09-19T02:16:36;19.20;;;4.88;;
55220;SDS011;41089;51.448;6.604;2023-09-19T02:22:37;11.07;;;3.15;;
55220;SDS011;41089;51.448;6.604;2023-09-19T02:28:39;10.98;;;2.95;;
55220;SDS011;41089;51.448;6.604;2023-09-19T02:34:39;10.80;;;2.72;;
55220;SDS011;41089;51.448;6.604;2023-09-19T02:40:40;12.40;;;3.28;;
55220;SDS011;41089;51.448;6.604;2023-09-19T02:46:40;11.73;;;3.88;;
55220;SDS011;41089;51.448;6.604;2023-09-19T02:52:41;13.10;;;2.53;;
55220;SDS011;41089;51.448;6.604;2023-09-19T02:58:43;10.60;;;2.80;;
55220;SDS011;41089;51.448;6.604;2023-09-19T03:04:44;10.95;;;3.08;;
55220;SDS011;41089;51.448;6.604;2023-09-19T03:10:46;10.07;;;2.63;;
55220;SDS011;41089;51.448;6.604;2023-09-19T03:16:48;7.80;;;2.40;;
55220;SDS011;41089;51.448;6.604;2023-09-19T03:22:48;9.15;;;2.63;;
55220;SDS011;41089;51.448;6.604;2023-09-19T03:28:49;10.82;;;2.58;;
55220;SDS011;41089;51.448;6.604;2023-09-19T03:34:49;9.47;;;2.40;;
55220;SDS011;41089;51.448;6.604;2023-09-19T03:40:49;9.77;;;2.85;;
55220;SDS011;41089;51.448;6.604;2023-09-19T03:46:51;10.73;;;2.50;;
55220;SDS011;41089;51.448;6.604;2023-09-19T03:52:55;8.38;;;2.50;;
55220;SDS011;41089;51.448;6.604;2023-09-19T03:58:57;11.45;;;3.03;;
55220;SDS011;41089;51.448;6.604;2023-09-19T04:04:57;14.17;;;3.10;;
55220;SDS011;41089;51.448;6.604;2023-09-19T04:10:58;10.23;;;3.60;;
55220;SDS011;41089;51.448;6.604;2023-09-19T04:16:58;10.30;;;2.75;;
55220;SDS011;41089;51.448;6.604;2023-09-19T04:22:58;11.48;;;2.58;;
55220;SDS011;41089;51.448;6.604;2023-09-19T04:28:59;8.95;;;2.80;;
55220;SDS011;41089;51.448;6.604;2023-09-19T04:35:01;8.57;;;2.80;;
55220;SDS011;41089;51.448;6.604;2023-09-19T04:41:05;11.32;;;2.88;;
55220;SDS011;41089;51.448;6.604;2023-09-19T04:47:05;9.33;;;2.70;;
55220;SDS011;41089;51.448;6.604;2023-09-19T04:53:06;5.78;;;2.60;;
55220;SDS011;41089;51.448;6.604;2023-09-19T04:59:07;11.48;;;2.70;;
55220;SDS011;41089;51.448;6.604;2023-09-19T05:05:09;8.98;;;2.58;;
55220;SDS011;41089;51.448;6.604;2023-09-19T05:11:17;8.55;;;2.67;;
55220;SDS011;41089;51.448;6.604;2023-09-19T05:17:19;10.73;;;2.92;;
55220;SDS011;41089;51.448;6.604;2023-09-19T05:23:19;9.85;;;2.78;;
55220;SDS011;41089;51.448;6.604;2023-09-19T05:29:21;9.00;;;3.10;;
55220;SDS011;41089;51.448;6.604;2023-09-19T05:35:21;15.48;;;3.05;;
55220;SDS011;41089;51.448;6.604;2023-09-19T05:41:22;14.52;;;3.92;;
55220;SDS011;41089;51.448;6.604;2023-09-19T05:47:23;8.52;;;2.85;;
55220;SDS011;41089;51.448;6.604;2023-09-19T05:53:25;11.65;;;3.15;;
55220;SDS011;41089;51.448;6.604;2023-09-19T05:59:25;7.40;;;2.92;;
55220;SDS011;41089;51.448;6.604;2023-09-19T06:05:26;13.17;;;3.67;;
55220;SDS011;41089;51.448;6.604;2023-09-19T06:11:27;10.95;;;3.38;;
55220;SDS011;41089;51.448;6.604;2023-09-19T06:17:29;9.02;;;2.70;;
55220;SDS011;41089;51.448;6.604;2023-09-19T06:23:31;9.20;;;3.05;;
55220;SDS011;41089;51.448;6.604;2023-09-19T06:29:31;12.87;;;3.20;;
55220;SDS011;41089;51.448;6.604;2023-09-19T06:35:32;15.75;;;3.22;;
55220;SDS011;41089;51.448;6.604;2023-09-19T06:41:34;15.05;;;3.28;;
55220;SDS011;41089;51.448;6.604;2023-09-19T06:47:35;9.73;;;3.08;;
55220;SDS011;41089;51.448;6.604;2023-09-19T06:53:36;11.00;;;3.15;;
55220;SDS011;41089;51.448;6.604;2023-09-19T06:59:36;12.55;;;2.88;;
55220;SDS011;41089;51.448;6.604;2023-09-19T07:05:37;12.77;;;3.63;;
55220;SDS011;41089;51.448;6.604;2023-09-19T07:11:39;10.70;;;3.00;;
55220;SDS011;41089;51.448;6.604;2023-09-19T07:17:39;10.30;;;2.40;;
55220;SDS011;41089;51.448;6.604;2023-09-19T07:23:40;12.55;;;3.00;;
55220;SDS011;41089;51.448;6.604;2023-09-19T07:29:40;9.52;;;2.85;;
55220;SDS011;41089;51.448;6.604;2023-09-19T07:35:44;14.57;;;2.67;;
55220;SDS011;41089;51.448;6.604;2023-09-19T07:41:46;10.52;;;3.42;;
55220;SDS011;41089;51.448;6.604;2023-09-19T07:47:46;11.97;;;2.90;;
55220;SDS011;41089;51.448;6.604;2023-09-19T07:53:48;11.70;;;2.80;;
55220;SDS011;41089;51.448;6.604;2023-09-19T07:59:49;9.95;;;3.15;;
55220;SDS011;41089;51.448;6.604;2023-09-19T08:05:49;8.27;;;2.50;;
55220;SDS011;41089;51.448;6.604;2023-09-19T08:11:49;15.35;;;3.63;;
55220;SDS011;41089;51.448;6.604;2023-09-19T08:17:50;13.93;;;3.45;;
55220;SDS011;41089;51.448;6.604;2023-09-19T08:23:51;7.13;;;2.65;;
55220;SDS011;41089;51.448;6.604;2023-09-19T08:29:52;8.70;;;2.60;;
55220;SDS011;41089;51.448;6.604;2023-09-19T08:35:55;15.52;;;2.90;;
55220;SDS011;41089;51.448;6.604;2023-09-19T08:41:59;18.80;;;3.47;;
55220;SDS011;41089;51.448;6.604;2023-09-19T08:54:09;12.70;;;3.47;;
55220;SDS011;41089;51.448;6.604;2023-09-19T09:00:15;14.57;;;4.25;;
55220;SDS011;41089;51.448;6.604;2023-09-19T09:06:23;11.20;;;2.90;;
55220;SDS011;41089;51.448;6.604;2023-09-19T09:12:25;13.85;;;2.90;;
55220;SDS011;41089;51.448;6.604;2023-09-19T09:18:27;14.10;;;3.20;;
55220;SDS011;41089;51.448;6.604;2023-09-19T09:24:29;8.35;;;2.75;;
55220;SDS011;41089;51.448;6.604;2023-09-19T09:30:34;10.50;;;2.95;;
55220;SDS011;41089;51.448;6.604;2023-09-19T09:36:38;9.55;;;3.10;;
55220;SDS011;41089;51.448;6.604;2023-09-19T09:42:40;18.75;;;3.42;;
55220;SDS011;41089;51.448;6.604;2023-09-19T09:48:41;11.30;;;2.88;;
55220;SDS011;41089;51.448;6.604;2023-09-19T09:54:58;10.65;;;2.47;;
55220;SDS011;41089;51.448;6.604;2023-09-19T10:01:01;9.50;;;3.33;;
55220;SDS011;41089;51.448;6.604;2023-09-19T10:07:23;13.27;;;3.60;;
55220;SDS011;41089;51.448;6.604;2023-09-19T10:13:28;12.30;;;3.03;;
55220;SDS011;41089;51.448;6.604;2023-09-19T10:19:34;10.23;;;3.20;;
55220;SDS011;41089;51.448;6.604;2023-09-19T10:25:38;10.02;;;3.35;;
55220;SDS011;41089;51.448;6.604;2023-09-19T10:31:39;11.35;;;3.10;;
55220;SDS011;41089;51.448;6.604;2023-09-19T10:37:42;10.95;;;3.00;;
55220;SDS011;41089;51.448;6.604;2023-09-19T10:43:45;10.68;;;3.10;;
55220;SDS011;41089;51.448;6.604;2023-09-19T10:49:48;6.88;;;2.20;;
55220;SDS011;41089;51.448;6.604;2023-09-19T10:55:53;11.37;;;2.97;;
55220;SDS011;41089;51.448;6.604;2023-09-19T11:01:55;10.05;;;3.63;;
55220;SDS011;41089;51.448;6.604;2023-09-19T11:07:59;10.05;;;2.67;;
55220;SDS011;41089;51.448;6.604;2023-09-19T11:20:23;9.00;;;3.45;;
55220;SDS011;41089;51.448;6.604;2023-09-19T11:26:39;7.82;;;2.40;;
55220;SDS011;41089;51.448;6.604;2023-09-19T11:39:25;7.22;;;2.47;;
55220;SDS011;41089;51.448;6.604;2023-09-19T11:51:52;9.38;;;2.88;;
55220;SDS011;41089;51.448;6.604;2023-09-19T11:57:55;5.57;;;2.22;;
55220;SDS011;41089;51.448;6.604;2023-09-19T12:03:56;11.85;;;3.40;;
55220;SDS011;41089;51.448;6.604;2023-09-19T12:10:04;9.27;;;2.53;;
55220;SDS011;41089;51.448;6.604;2023-09-19T12:16:13;7.47;;;2.63;;
55220;SDS011;41089;51.448;6.604;2023-09-19T12:22:15;7.78;;;2.65;;
55220;SDS011;41089;51.448;6.604;2023-09-19T12:28:16;9.18;;;3.10;;
55220;SDS011;41089;51.448;6.604;2023-09-19T12:34:22;9.95;;;2.90;;
55220;SDS011;41089;51.448;6.604;2023-09-19T12:40:27;8.60;;;2.20;;
55220;SDS011;41089;51.448;6.604;2023-09-19T12:46:29;8.65;;;2.97;;
55220;SDS011;41089;51.448;6.604;2023-09-19T12:52:35;5.75;;;2.25;;
55220;SDS011;41089;51.448;6.604;2023-09-19T12:58:49;6.72;;;2.50;;
55220;SDS011;41089;51.448;6.604;2023-09-19T13:04:58;5.45;;;1.88;;
55220;SDS011;41089;51.448;6.604;2023-09-19T13:17:10;5.22;;;1.83;;
55220;SDS011;41089;51.448;6.604;2023-09-19T13:23:26;5.63;;;1.52;;
55220;SDS011;41089;51.448;6.604;2023-09-19T13:29:27;5.68;;;1.70;;
55220;SDS011;41089;51.448;6.604;2023-09-19T13:35:28;4.07;;;1.52;;
55220;SDS011;41089;51.448;6.604;2023-09-19T13:41:29;3.67;;;1.70;;
55220;SDS011;41089;51.448;6.604;2023-09-19T13:47:31;5.97;;;2.10;;
55220;SDS011;41089;51.448;6.604;2023-09-19T13:53:33;9.07;;;1.52;;
55220;SDS011;41089;51.448;6.604;2023-09-19T13:59:34;5.95;;;1.55;;
55220;SDS011;41089;51.448;6.604;2023-09-19T14:05:34;7.63;;;2.07;;
55220;SDS011;41089;51.448;6.604;2023-09-19T14:11:35;5.68;;;1.52;;
55220;SDS011;41089;51.448;6.604;2023-09-19T14:17:35;5.15;;;1.60;;
55220;SDS011;41089;51.448;6.604;2023-09-19T14:23:35;5.27;;;1.50;;
55220;SDS011;41089;51.448;6.604;2023-09-19T14:29:36;4.60;;;1.38;;
55220;SDS011;41089;51.448;6.604;2023-09-19T14:35:37;2.75;;;1.20;;
55220;SDS011;41089;51.448;6.604;2023-09-19T14:41:38;4.45;;;1.30;;
55220;SDS011;41089;51.448;6.604;2023-09-19T14:47:38;3.85;;;1.23;;
55220;SDS011;41089;51.448;6.604;2023-09-19T14:53:39;3.78;;;1.30;;
55220;SDS011;41089;51.448;6.604;2023-09-19T14:59:40;6.78;;;1.17;;
55220;SDS011;41089;51.448;6.604;2023-09-19T15:05:40;5.45;;;1.20;;
55220;SDS011;41089;51.448;6.604;2023-09-19T15:11:41;3.15;;;1.10;;
55220;SDS011;41089;51.448;6.604;2023-09-19T15:17:41;3.17;;;1.10;;
55220;SDS011;41089;51.448;6.604;2023-09-19T15:23:42;4.38;;;1.85;;
55220;SDS011;41089;51.448;6.604;2023-09-19T15:29:43;4.88;;;1.42;;
55220;SDS011;41089;51.448;6.604;2023-09-19T15:35:43;5.78;;;1.33;;
55220;SDS011;41089;51.448;6.604;2023-09-19T15:41:44;3.73;;;1.03;;
55220;SDS011;41089;51.448;6.604;2023-09-19T15:47:46;5.90;;;2.30;;
55220;SDS011;41089;51.448;6.604;2023-09-19T15:53:47;3.28;;;1.13;;
55220;SDS011;41089;51.448;6.604;2023-09-19T15:59:48;3.42;;;1.10;;
55220;SDS011;41089;51.448;6.604;2023-09-19T16:05:49;3.35;;;1.13;;
55220;SDS011;41089;51.448;6.604;2023-09-19T16:11:50;4.13;;;1.25;;
55220;SDS011;41089;51.448;6.604;2023-09-19T16:17:50;4.70;;;1.30;;
55220;SDS011;41089;51.448;6.604;2023-09-19T16:23:50;3.23;;;1.20;;
55220;SDS011;41089;51.448;6.604;2023-09-19T16:29:51;1.77;;;1.07;;
55220;SDS011;41089;51.448;6.604;2023-09-19T16:35:51;3.95;;;1.30;;
55220;SDS011;41089;51.448;6.604;2023-09-19T16:41:52;3.63;;;1.50;;
55220;SDS011;41089;51.448;6.604;2023-09-19T16:47:53;3.90;;;1.40;;
55220;SDS011;41089;51.448;6.604;2023-09-19T16:53:55;4.03;;;1.33;;
55220;SDS011;41089;51.448;6.604;2023-09-19T16:59:55;3.43;;;1.10;;
55220;SDS011;41089;51.448;6.604;2023-09-19T17:05:59;2.55;;;1.27;;
55220;SDS011;41089;51.448;6.604;2023-09-19T17:11:59;5.28;;;1.88;;
55220;SDS011;41089;51.448;6.604;2023-09-19T17:17:59;6.45;;;2.33;;
55220;SDS011;41089;51.448;6.604;2023-09-19T17:24:00;6.90;;;1.73;;
55220;SDS011;41089;51.448;6.604;2023-09-19T17:30:03;4.30;;;1.42;;
55220;SDS011;41089;51.448;6.604;2023-09-19T17:36:06;5.18;;;1.80;;
55220;SDS011;41089;51.448;6.604;2023-09-19T17:42:14;5.05;;;2.50;;
55220;SDS011;41089;51.448;6.604;2023-09-19T17:48:15;3.58;;;1.70;;
55220;SDS011;41089;51.448;6.604;2023-09-19T17:54:17;6.20;;;2.37;;
55220;SDS011;41089;51.448;6.604;2023-09-19T18:00:18;5.97;;;1.98;;
55220;SDS011;41089;51.448;6.604;2023-09-19T18:06:19;4.43;;;1.70;;
55220;SDS011;41089;51.448;6.604;2023-09-19T18:12:19;3.63;;;1.80;;
55220;SDS011;41089;51.448;6.604;2023-09-19T18:18:20;8.97;;;1.80;;
55220;SDS011;41089;51.448;6.604;2023-09-19T18:24:21;2.28;;;1.20;;
55220;SDS011;41089;51.448;6.604;2023-09-19T18:30:22;7.57;;;1.98;;
55220;SDS011;41089;51.448;6.604;2023-09-19T18:36:24;4.25;;;1.48;;
55220;SDS011;41089;51.448;6.604;2023-09-19T18:42:24;4.70;;;1.65;;
55220;SDS011;41089;51.448;6.604;2023-09-19T18:48:26;6.07;;;1.90;;
55220;SDS011;41089;51.448;6.604;2023-09-19T18:54:26;4.93;;;1.50;;
55220;SDS011;41089;51.448;6.604;2023-09-19T19:00:27;4.53;;;1.35;;
55220;SDS011;41089;51.448;6.604;2023-09-19T19:06:29;5.93;;;1.83;;
55220;SDS011;41089;51.448;6.604;2023-09-19T19:12:33;4.30;;;1.75;;
55220;SDS011;41089;51.448;6.604;2023-09-19T19:18:34;4.25;;;1.52;;
55220;SDS011;41089;51.448;6.604;2023-09-19T19:24:35;5.70;;;2.00;;
55220;SDS011;41089;51.448;6.604;2023-09-19T19:30:42;5.33;;;1.93;;
55220;SDS011;41089;51.448;6.604;2023-09-19T19:36:45;3.22;;;1.25;;
55220;SDS011;41089;51.448;6.604;2023-09-19T19:42:46;6.18;;;1.60;;
55220;SDS011;41089;51.448;6.604;2023-09-19T19:48:49;3.57;;;1.40;;
55220;SDS011;41089;51.448;6.604;2023-09-19T19:54:51;6.43;;;2.33;;
55220;SDS011;41089;51.448;6.604;2023-09-19T20:00:55;6.25;;;2.28;;
55220;SDS011;41089;51.448;6.604;2023-09-19T20:06:56;7.15;;;1.70;;
55220;SDS011;41089;51.448;6.604;2023-09-19T20:12:58;4.70;;;1.80;;
55220;SDS011;41089;51.448;6.604;2023-09-19T20:18:59;4.95;;;1.75;;
55220;SDS011;41089;51.448;6.604;2023-09-19T20:25:00;5.45;;;1.55;;
55220;SDS011;41089;51.448;6.604;2023-09-19T20:31:08;4.93;;;1.73;;
55220;SDS011;41089;51.448;6.604;2023-09-19T20:37:09;3.08;;;1.40;;
55220;SDS011;41089;51.448;6.604;2023-09-19T20:43:10;3.70;;;1.73;;
55220;SDS011;41089;51.448;6.604;2023-09-19T20:49:11;6.75;;;2.00;;
55220;SDS011;41089;51.448;6.604;2023-09-19T20:55:11;5.60;;;2.23;;
55220;SDS011;41089;51.448;6.604;2023-09-19T21:01:12;5.18;;;2.00;;
55220;SDS011;41089;51.448;6.604;2023-09-19T21:07:13;4.15;;;1.75;;
55220;SDS011;41089;51.448;6.604;2023-09-19T21:13:13;5.43;;;1.90;;
55220;SDS011;41089;51.448;6.604;2023-09-19T21:19:13;2.88;;;1.88;;
55220;SDS011;41089;51.448;6.604;2023-09-19T21:25:14;3.60;;;1.70;;
55220;SDS011;41089;51.448;6.604;2023-09-19T21:31:14;6.27;;;2.30;;
55220;SDS011;41089;51.448;6.604;2023-09-19T21:37:15;4.97;;;1.60;;
55220;SDS011;41089;51.448;6.604;2023-09-19T21:43:17;6.13;;;2.17;;
55220;SDS011;41089;51.448;6.604;2023-09-19T21:49:17;7.53;;;2.27;;
55220;SDS011;41089;51.448;6.604;2023-09-19T21:55:17;5.28;;;2.30;;
55220;SDS011;41089;51.448;6.604;2023-09-19T22:01:18;4.97;;;2.20;;
55220;SDS011;41089;51.448;6.604;2023-09-19T22:07:22;6.32;;;2.00;;
55220;SDS011;41089;51.448;6.604;2023-09-19T22:13:25;4.38;;;1.60;;
55220;SDS011;41089;51.448;6.604;2023-09-19T22:19:29;7.95;;;2.20;;
55220;SDS011;41089;51.448;6.604;2023-09-19T22:25:29;3.35;;;1.52;;
55220;SDS011;41089;51.448;6.604;2023-09-19T22:31:36;6.30;;;1.92;;
55220;SDS011;41089;51.448;6.604;2023-09-19T22:37:42;4.95;;;2.40;;
55220;SDS011;41089;51.448;6.604;2023-09-19T22:43:42;5.30;;;2.58;;
55220;SDS011;41089;51.448;6.604;2023-09-19T22:49:46;7.72;;;2.72;;
55220;SDS011;41089;51.448;6.604;2023-09-19T22:55:50;4.00;;;1.77;;
55220;SDS011;41089;51.448;6.604;2023-09-19T23:01:51;6.03;;;2.55;;
55220;SDS011;41089;51.448;6.604;2023-09-19T23:07:53;6.22;;;2.05;;
55220;SDS011;41089;51.448;6.604;2023-09-19T23:13:58;6.10;;;2.17;;
55220;SDS011;41089;51.448;6.604;2023-09-19T23:20:01;7.22;;;2.00;;
55220;SDS011;41089;51.448;6.604;2023-09-19T23:26:07;4.95;;;2.70;;
55220;SDS011;41089;51.448;6.604;2023-09-19T23:32:08;3.85;;;2.05;;
55220;SDS011;41089;51.448;6.604;2023-09-19T23:38:10;5.78;;;2.00;;
55220;SDS011;41089;51.448;6.604;2023-09-19T23:44:10;3.53;;;1.85;;
55220;SDS011;41089;51.448;6.604;2023-09-19T23:50:16;3.33;;;1.80;;
55220;SDS011;41089;51.448;6.604;2023-09-19T23:56:22;5.03;;;2.10;;
